CheckWX is a tool to help pilots better visualize weather data.  It is not intended as a substitute for an official pre-flight weather briefing.

17:58:38 UTC

KGLY METAR
Clinton Regional Airport
Clinton, Missouri, USA
Current

1 hour ago

KGLY 171635Z AUTO 30013KT 10SM OVC016 M03/M06 A2991 RMK AO2
Observed
Feb-17 @ 16:35 UTC
Wind
  • 300° at 13 KTS
Visibility
10 SM
Flight Rules
MVFR
Cloud Levels
  • Overcast at 1,600' AGL
Temperature
-3°C / 27°F
Dewpoint
-6°C / 21°F
Humidity
80%
Altimeter
29.91" Hg
Pressure
1012.92 hPa
Previous

2 hours ago

KGLY 171555Z AUTO 29009KT 9SM OVC016 M03/M06 A2989 RMK AO2
Observed
Feb-17 @ 15:55 UTC
Wind
  • 290° at 9 KTS
Visibility
9 SM
Flight Rules
MVFR
Cloud Levels
  • Overcast at 1,600' AGL
Temperature
-3°C / 27°F
Dewpoint
-6°C / 21°F
Humidity
80%
Altimeter
29.89" Hg
Pressure
1012.22 hPa
Previous

4 hours ago

KGLY 171415Z AUTO 30010KT 8SM OVC012 M03/M04 A2983 RMK AO2
Observed
Feb-17 @ 14:15 UTC
Wind
  • 300° at 10 KTS
Visibility
8 SM
Flight Rules
MVFR
Cloud Levels
  • Overcast at 1,200' AGL
Temperature
-3°C / 27°F
Dewpoint
-4°C / 25°F
Humidity
93%
Altimeter
29.83" Hg
Pressure
1010.12 hPa